createdAt,value
2023-02-13T00:00:22.237Z,3.00
2023-02-13T00:02:49.006Z,3.25
2023-02-13T00:05:15.834Z,3.20
2023-02-13T00:07:42.339Z,2.88
2023-02-13T00:10:09.349Z,3.88
2023-02-13T00:12:36.043Z,2.90
2023-02-13T00:15:03.030Z,3.70
2023-02-13T00:17:29.605Z,3.08
2023-02-13T00:19:56.158Z,3.33
2023-02-13T00:22:22.796Z,2.35
2023-02-13T00:24:49.303Z,3.55
2023-02-13T00:27:15.914Z,3.13
2023-02-13T00:29:42.671Z,2.97
2023-02-13T00:32:09.460Z,4.05
2023-02-13T00:34:36.618Z,2.95
2023-02-13T00:37:03.431Z,3.58
2023-02-13T00:39:30.121Z,2.65
2023-02-13T00:41:56.703Z,2.92
2023-02-13T00:44:23.222Z,2.55
2023-02-13T00:46:49.893Z,3.33
2023-02-13T00:49:16.466Z,4.10
2023-02-13T00:51:42.988Z,2.53
2023-02-13T00:54:09.543Z,2.50
2023-02-13T00:56:36.096Z,4.00
2023-02-13T00:59:02.646Z,2.65
2023-02-13T01:01:29.292Z,3.10
2023-02-13T01:03:56.053Z,3.42
2023-02-13T01:06:22.755Z,2.50
2023-02-13T01:08:49.331Z,3.08
2023-02-13T01:11:16.321Z,4.10
2023-02-13T01:13:42.869Z,4.53
2023-02-13T01:16:09.465Z,3.50
2023-02-13T01:18:36.058Z,4.43
2023-02-13T01:21:07.382Z,4.50
2023-02-13T01:23:37.096Z,3.05
2023-02-13T01:26:05.742Z,2.50
2023-02-13T01:28:32.309Z,3.60
2023-02-13T01:30:59.307Z,3.67
2023-02-13T01:33:28.446Z,2.53
2023-02-13T01:35:54.998Z,3.30
2023-02-13T01:38:21.900Z,4.20
2023-02-13T01:40:50.385Z,2.78
2023-02-13T01:43:17.152Z,3.95
2023-02-13T01:45:46.630Z,3.95
2023-02-13T01:48:20.304Z,3.58
2023-02-13T01:50:51.119Z,3.92
2023-02-13T01:53:27.060Z,2.70
2023-02-13T01:58:27.836Z,2.58
2023-02-13T02:00:54.547Z,3.10
2023-02-13T02:03:30.158Z,2.63
2023-02-13T02:05:59.245Z,3.65
2023-02-13T02:08:26.181Z,3.60
2023-02-13T02:10:53.685Z,2.50
2023-02-13T02:13:21.590Z,2.70
2023-02-13T02:15:50.021Z,3.20
2023-02-13T02:18:21.783Z,4.80
2023-02-13T02:21:05.839Z,3.17
2023-02-13T02:23:56.234Z,2.88
2023-02-13T02:26:22.691Z,4.03
2023-02-13T02:28:55.070Z,3.72
2023-02-13T02:31:27.589Z,3.40
2023-02-13T02:33:54.179Z,3.42
2023-02-13T02:36:38.048Z,3.85
2023-02-13T02:39:10.292Z,4.32
2023-02-13T02:42:00.998Z,5.75
2023-02-13T02:44:50.640Z,4.70
2023-02-13T02:48:15.144Z,2.90
2023-02-13T02:50:53.335Z,1.95
2023-02-13T02:53:38.741Z,3.78
2023-02-13T02:56:20.526Z,3.97
2023-02-13T02:59:13.626Z,3.50
2023-02-13T03:02:00.613Z,4.47
2023-02-13T03:04:51.917Z,4.28
2023-02-13T03:07:19.733Z,2.58
2023-02-13T03:10:12.280Z,3.15
2023-02-13T03:13:06.803Z,3.42
2023-02-13T03:15:35.957Z,2.35
2023-02-13T03:18:21.045Z,6.20
2023-02-13T03:21:24.222Z,2.92
2023-02-13T03:24:03.986Z,3.53
2023-02-13T03:26:46.262Z,4.47
2023-02-13T03:29:59.822Z,3.60
2023-02-13T03:32:35.676Z,3.17
2023-02-13T03:35:34.545Z,4.40
2023-02-13T03:38:08.425Z,2.92
2023-02-13T03:41:07.676Z,2.17
2023-02-13T03:43:45.824Z,3.08
2023-02-13T03:46:13.933Z,3.95
2023-02-13T03:49:02.121Z,3.13
2023-02-13T03:51:43.969Z,4.82
2023-02-13T03:54:21.643Z,3.85
2023-02-13T03:57:09.240Z,3.20
2023-02-13T03:59:37.535Z,3.53
2023-02-13T04:02:17.023Z,3.95
2023-02-13T04:05:04.650Z,2.88
2023-02-13T04:07:32.075Z,4.25
2023-02-13T04:10:03.579Z,4.25
2023-02-13T04:12:49.014Z,6.93
2023-02-13T04:15:21.691Z,3.63
2023-02-13T04:18:13.211Z,4.65
2023-02-13T04:20:40.149Z,3.47
2023-02-13T04:23:12.162Z,4.22
2023-02-13T04:25:41.313Z,5.10
2023-02-13T04:28:08.090Z,5.63
2023-02-13T04:30:34.830Z,5.50
2023-02-13T04:33:01.413Z,3.80
2023-02-13T04:35:27.986Z,3.28
2023-02-13T04:37:54.518Z,4.43
2023-02-13T04:40:21.038Z,3.17
2023-02-13T04:42:49.128Z,5.28
2023-02-13T04:45:16.385Z,4.22
2023-02-13T04:47:42.958Z,4.97
2023-02-13T04:50:10.015Z,4.50
2023-02-13T04:52:36.529Z,3.95
2023-02-13T04:55:03.034Z,4.90
2023-02-13T04:57:29.842Z,4.38
2023-02-13T04:59:56.395Z,4.88
2023-02-13T05:02:22.933Z,3.40
2023-02-13T05:04:49.507Z,4.05
2023-02-13T05:07:16.098Z,4.30
2023-02-13T05:09:42.662Z,3.67
2023-02-13T05:12:09.248Z,4.82
2023-02-13T05:14:35.927Z,4.32
2023-02-13T05:17:02.720Z,4.45
2023-02-13T05:19:29.246Z,5.10
2023-02-13T05:22:14.451Z,6.65
2023-02-13T05:24:41.009Z,4.50
2023-02-13T05:27:07.520Z,3.45
2023-02-13T05:29:34.061Z,5.22
2023-02-13T05:32:00.725Z,4.05
2023-02-13T05:34:28.439Z,8.20
2023-02-13T05:36:55.033Z,5.63
2023-02-13T05:39:21.769Z,5.18
2023-02-13T05:41:49.441Z,4.45
2023-02-13T05:44:16.521Z,5.70
2023-02-13T05:46:44.829Z,5.57
2023-02-13T05:49:13.375Z,5.40
2023-02-13T05:51:39.987Z,4.22
2023-02-13T05:54:06.582Z,5.07
2023-02-13T05:56:33.126Z,5.18
2023-02-13T05:58:59.945Z,4.22
2023-02-13T06:01:26.635Z,7.47
2023-02-13T06:03:53.335Z,6.18
2023-02-13T06:06:20.028Z,5.38
2023-02-13T06:08:46.557Z,5.22
2023-02-13T06:11:13.080Z,5.13
2023-02-13T06:13:40.819Z,7.22
2023-02-13T06:16:09.121Z,5.75
2023-02-13T06:18:35.750Z,6.43
2023-02-13T06:21:03.058Z,7.15
2023-02-13T06:23:29.973Z,7.03
2023-02-13T06:25:56.939Z,5.07
2023-02-13T06:28:23.489Z,5.22
2023-02-13T06:30:50.291Z,5.55
2023-02-13T06:33:16.863Z,5.38
2023-02-13T06:35:43.393Z,6.25
2023-02-13T06:38:10.018Z,5.30
2023-02-13T06:40:36.560Z,7.10
2023-02-13T06:43:03.127Z,5.90
2023-02-13T06:45:29.655Z,7.35
2023-02-13T06:47:56.240Z,8.10
2023-02-13T06:50:22.828Z,6.60
2023-02-13T06:52:51.468Z,5.07
2023-02-13T06:55:18.722Z,6.28
2023-02-13T06:57:45.986Z,8.65
2023-02-13T07:00:13.964Z,7.32
2023-02-13T07:02:41.995Z,6.20
2023-02-13T07:05:09.680Z,8.13
2023-02-13T07:07:37.883Z,7.35
2023-02-13T07:10:06.069Z,7.88
2023-02-13T07:12:36.703Z,7.57
2023-02-13T07:15:06.568Z,7.70
2023-02-13T07:17:34.001Z,7.57
2023-02-13T07:20:00.704Z,8.43
2023-02-13T07:22:27.371Z,6.75
2023-02-13T07:24:53.966Z,8.40
2023-02-13T07:27:20.589Z,10.65
2023-02-13T07:29:47.107Z,8.65
2023-02-13T07:32:13.638Z,8.82
2023-02-13T07:34:52.252Z,8.60
2023-02-13T07:37:28.476Z,9.25
2023-02-13T07:39:55.148Z,7.63
2023-02-13T07:42:22.183Z,8.23
2023-02-13T07:44:48.824Z,11.77
2023-02-13T07:47:15.426Z,10.80
2023-02-13T07:49:41.977Z,11.57
2023-02-13T07:52:08.514Z,10.63
2023-02-13T07:54:36.945Z,11.48
2023-02-13T07:57:04.411Z,12.57
2023-02-13T07:59:30.938Z,9.00
2023-02-13T08:01:57.514Z,10.98
2023-02-13T08:04:26.125Z,11.45
2023-02-13T08:06:52.934Z,12.48
2023-02-13T08:09:40.920Z,10.60
2023-02-13T08:12:09.440Z,14.15
2023-02-13T08:14:35.985Z,13.60
2023-02-13T08:17:02.674Z,11.15
2023-02-13T08:19:29.320Z,12.63
2023-02-13T08:21:56.329Z,12.23
2023-02-13T08:24:23.091Z,13.38
2023-02-13T08:26:49.867Z,10.70
2023-02-13T08:29:16.479Z,11.63
2023-02-13T08:31:43.893Z,12.90
2023-02-13T08:34:10.860Z,11.13
2023-02-13T08:36:37.395Z,12.13
2023-02-13T08:39:04.022Z,10.50
2023-02-13T08:41:30.565Z,11.73
2023-02-13T08:43:57.076Z,12.15
2023-02-13T08:46:23.930Z,10.93
2023-02-13T08:48:51.297Z,11.75
2023-02-13T08:51:17.960Z,10.20
2023-02-13T08:53:44.564Z,12.40
2023-02-13T08:56:11.517Z,8.73
2023-02-13T08:58:38.114Z,14.02
2023-02-13T09:01:06.707Z,10.82
2023-02-13T09:03:33.729Z,12.57
2023-02-13T09:06:01.376Z,10.10
2023-02-13T09:08:28.723Z,11.63
2023-02-13T09:11:01.355Z,11.52
2023-02-13T09:13:30.055Z,12.52
2023-02-13T09:16:07.646Z,13.45
2023-02-13T09:18:35.132Z,12.35
2023-02-13T09:21:04.784Z,10.57
2023-02-13T09:23:33.000Z,12.32
2023-02-13T09:26:01.497Z,12.93
2023-02-13T09:28:31.980Z,12.27
2023-02-13T09:30:58.765Z,11.75
2023-02-13T09:33:26.426Z,11.32
2023-02-13T09:35:52.996Z,13.68
2023-02-13T09:38:19.555Z,14.35
2023-02-13T09:40:57.810Z,14.98
2023-02-13T09:43:31.438Z,11.20
2023-02-13T09:46:02.886Z,11.63
2023-02-13T09:48:32.606Z,10.50
2023-02-13T09:50:59.925Z,13.52
2023-02-13T09:53:29.422Z,12.02
2023-02-13T09:56:09.792Z,10.70
2023-02-13T09:58:41.778Z,9.20
2023-02-13T10:01:20.389Z,12.80
2023-02-13T10:04:16.559Z,10.55
2023-02-13T10:06:52.047Z,12.52
2023-02-13T10:09:38.844Z,12.98
2023-02-13T10:12:15.182Z,10.52
2023-02-13T10:15:03.692Z,9.93
2023-02-13T10:17:36.741Z,12.25
2023-02-13T10:20:08.597Z,10.23
2023-02-13T10:22:55.065Z,9.85
2023-02-13T10:27:55.285Z,10.23
2023-02-13T10:30:30.784Z,10.20
2023-02-13T10:33:18.614Z,9.85
2023-02-13T10:35:48.359Z,10.52
2023-02-13T10:38:19.028Z,8.75
2023-02-13T10:41:03.098Z,8.20
2023-02-13T10:43:53.923Z,7.93
2023-02-13T10:46:55.973Z,8.68
2023-02-13T10:49:28.198Z,9.23
2023-02-13T10:52:24.398Z,7.95
2023-02-13T10:55:13.072Z,10.85
2023-02-13T10:58:07.681Z,8.80
2023-02-13T11:00:58.920Z,8.63
2023-02-13T11:03:28.286Z,7.78
2023-02-13T11:05:57.245Z,7.97
2023-02-13T11:08:45.982Z,7.60
2023-02-13T11:11:31.411Z,6.55
2023-02-13T11:14:13.754Z,7.75
2023-02-13T11:16:44.148Z,9.30
2023-02-13T11:19:37.975Z,8.10
2023-02-13T11:22:25.277Z,7.05
2023-02-13T11:24:58.409Z,7.88
2023-02-13T11:27:30.700Z,8.00
2023-02-13T11:30:00.179Z,9.13
2023-02-13T11:32:29.551Z,5.68
2023-02-13T11:34:56.836Z,5.75
2023-02-13T11:37:31.733Z,6.90
2023-02-13T11:40:00.348Z,8.00
2023-02-13T11:42:36.266Z,6.18
2023-02-13T11:45:04.738Z,6.65
2023-02-13T11:47:37.943Z,5.50
2023-02-13T11:50:07.226Z,5.70
2023-02-13T11:52:36.190Z,6.95
2023-02-13T11:55:23.914Z,5.55
2023-02-13T11:57:59.456Z,5.10
2023-02-13T12:00:28.541Z,4.85
2023-02-13T12:02:55.185Z,6.75
2023-02-13T12:05:24.165Z,6.90
2023-02-13T12:07:51.190Z,7.53
2023-02-13T12:10:23.756Z,5.15
2023-02-13T12:12:59.253Z,6.85
2023-02-13T12:15:32.711Z,6.70
2023-02-13T12:18:27.442Z,8.32
2023-02-13T12:21:01.504Z,6.25
2023-02-13T12:23:49.165Z,6.05
2023-02-13T12:26:31.886Z,6.03
2023-02-13T12:28:58.423Z,6.60
2023-02-13T12:32:13.241Z,7.35
2023-02-13T12:35:14.767Z,8.63
2023-02-13T12:37:57.955Z,7.20
2023-02-13T12:40:47.233Z,6.93
2023-02-13T12:43:41.474Z,8.77
2023-02-13T12:46:08.123Z,6.40
2023-02-13T12:48:39.001Z,8.52
2023-02-13T12:51:32.061Z,8.32
2023-02-13T12:54:16.333Z,7.40
2023-02-13T12:57:15.246Z,8.05
2023-02-13T13:00:14.183Z,11.43
2023-02-13T13:02:47.247Z,9.38
2023-02-13T13:05:27.350Z,7.78
2023-02-13T13:08:12.326Z,8.25
2023-02-13T13:11:05.847Z,7.57
2023-02-13T13:13:32.360Z,11.55
2023-02-13T13:16:28.124Z,8.82
2023-02-13T13:18:54.654Z,9.30
2023-02-13T13:21:45.520Z,6.18
2023-02-13T13:24:23.913Z,6.82
2023-02-13T13:26:54.136Z,6.10
2023-02-13T13:29:26.557Z,6.85
2023-02-13T13:31:57.838Z,6.72
2023-02-13T13:34:27.156Z,6.40
2023-02-13T13:36:57.129Z,5.55
2023-02-13T13:39:52.491Z,6.25
2023-02-13T13:42:23.769Z,6.72
2023-02-13T13:45:18.092Z,6.88
2023-02-13T13:47:56.737Z,6.85
2023-02-13T13:50:26.126Z,6.75
2023-02-13T13:53:13.341Z,6.13
2023-02-13T13:55:52.823Z,6.75
2023-02-13T13:58:23.876Z,5.28
2023-02-13T14:01:18.299Z,5.80
2023-02-13T14:03:58.331Z,7.47
2023-02-13T14:06:48.967Z,6.05
2023-02-13T14:09:27.348Z,7.07
2023-02-13T14:11:55.270Z,6.90
2023-02-13T14:14:27.904Z,7.43
2023-02-13T14:17:04.849Z,7.78
2023-02-13T14:19:34.298Z,7.47
2023-02-13T14:22:19.290Z,7.18
2023-02-13T14:25:00.928Z,8.25
2023-02-13T14:27:34.371Z,7.85
2023-02-13T14:30:02.017Z,6.35
2023-02-13T14:32:28.620Z,6.60
2023-02-13T14:35:02.561Z,6.55
2023-02-13T14:37:35.798Z,8.25
2023-02-13T14:40:17.700Z,10.48
2023-02-13T14:42:53.678Z,7.63
2023-02-13T14:47:55.371Z,6.95
2023-02-13T14:50:29.211Z,8.93
2023-02-13T14:52:58.893Z,7.32
2023-02-13T14:55:32.590Z,9.23
2023-02-13T14:58:07.604Z,7.10
2023-02-13T15:00:53.799Z,9.32
2023-02-13T15:03:23.259Z,9.13
2023-02-13T15:05:52.931Z,9.43
2023-02-13T15:08:24.681Z,9.80
2023-02-13T15:10:54.719Z,7.82
2023-02-13T15:13:29.280Z,8.90
2023-02-13T15:16:10.225Z,8.52
2023-02-13T15:18:48.167Z,9.43
2023-02-13T15:21:25.770Z,8.10
2023-02-13T15:23:57.701Z,8.68
2023-02-13T15:26:28.588Z,10.63
2023-02-13T15:29:05.833Z,7.65
2023-02-13T15:31:34.824Z,9.23
2023-02-13T15:34:01.629Z,7.55
2023-02-13T15:36:36.118Z,10.02
2023-02-13T15:39:09.853Z,9.85
2023-02-13T15:41:43.756Z,9.68
2023-02-13T15:44:18.533Z,12.48
2023-02-13T15:46:48.424Z,10.32
2023-02-13T15:49:21.391Z,8.73
2023-02-13T15:51:49.062Z,8.73
2023-02-13T15:54:24.092Z,10.35
2023-02-13T15:56:52.224Z,9.33
2023-02-13T15:59:20.362Z,10.93
2023-02-13T16:01:49.767Z,8.93
2023-02-13T16:04:20.361Z,8.80
2023-02-13T16:06:47.660Z,9.45
2023-02-13T16:09:33.834Z,8.75
2023-02-13T16:12:03.478Z,10.25
2023-02-13T16:14:33.847Z,11.43
2023-02-13T16:17:04.237Z,10.00
2023-02-13T16:19:36.097Z,10.13
2023-02-13T16:22:27.333Z,8.60
2023-02-13T16:24:58.700Z,8.73
2023-02-13T16:27:28.331Z,10.10
2023-02-13T16:29:59.088Z,10.45
2023-02-13T16:32:32.673Z,12.65
2023-02-13T16:35:31.516Z,9.27
2023-02-13T16:38:02.463Z,13.10
2023-02-13T16:40:31.891Z,12.07
2023-02-13T16:43:43.415Z,13.07
2023-02-13T16:46:19.985Z,9.98
2023-02-13T16:49:01.412Z,10.25
2023-02-13T16:51:30.720Z,12.25
2023-02-13T16:54:00.497Z,13.32
2023-02-13T16:56:27.080Z,12.38
2023-02-13T16:59:11.718Z,11.68
2023-02-13T17:01:38.560Z,11.55
2023-02-13T17:04:23.481Z,11.07
2023-02-13T17:06:55.609Z,12.57
2023-02-13T17:09:22.542Z,14.60
2023-02-13T17:11:51.461Z,12.52
2023-02-13T17:14:19.508Z,16.38
2023-02-13T17:16:47.967Z,12.35
2023-02-13T17:19:14.794Z,10.85
2023-02-13T17:21:42.240Z,13.77
2023-02-13T17:24:17.834Z,10.30
2023-02-13T17:26:44.437Z,9.68
2023-02-13T17:29:11.043Z,11.77
2023-02-13T17:31:37.811Z,9.07
2023-02-13T17:34:05.336Z,11.63
2023-02-13T17:36:31.884Z,11.45
2023-02-13T17:38:58.414Z,11.95
2023-02-13T17:41:25.142Z,9.88
2023-02-13T17:43:51.660Z,9.77
2023-02-13T17:46:18.246Z,11.38
2023-02-13T17:48:44.860Z,9.32
2023-02-13T17:51:14.405Z,10.60
2023-02-13T17:53:40.986Z,12.75
2023-02-13T17:56:07.693Z,10.35
2023-02-13T17:58:34.256Z,9.93
2023-02-13T18:01:01.231Z,10.35
2023-02-13T18:03:28.408Z,10.63
2023-02-13T18:05:55.114Z,7.90
2023-02-13T18:08:21.767Z,9.80
2023-02-13T18:10:48.485Z,11.18
2023-02-13T18:13:15.139Z,9.35
2023-02-13T18:15:43.427Z,8.57
2023-02-13T18:18:11.983Z,9.95
2023-02-13T18:20:39.075Z,7.35
2023-02-13T18:23:07.036Z,7.57
2023-02-13T18:25:34.538Z,9.32
2023-02-13T18:28:01.275Z,7.30
2023-02-13T18:30:28.213Z,7.47
2023-02-13T18:32:56.745Z,7.25
2023-02-13T18:35:23.674Z,8.00
2023-02-13T18:37:50.666Z,8.38
2023-02-13T18:40:17.816Z,6.55
2023-02-13T18:42:44.901Z,6.60
2023-02-13T18:45:12.155Z,6.18
2023-02-13T18:47:39.214Z,7.63
2023-02-13T18:50:08.332Z,8.45
2023-02-13T18:52:35.539Z,7.13
2023-02-13T18:55:02.469Z,6.30
2023-02-13T18:57:31.947Z,8.30
2023-02-13T18:59:58.574Z,7.82
2023-02-13T19:02:25.165Z,6.85
2023-02-13T19:04:51.903Z,6.32
2023-02-13T19:07:18.503Z,7.30
2023-02-13T19:09:45.186Z,8.85
2023-02-13T19:12:11.845Z,8.68
2023-02-13T19:14:39.338Z,7.53
2023-02-13T19:17:08.298Z,7.18
2023-02-13T19:19:34.927Z,9.55
2023-02-13T19:22:01.805Z,7.38
2023-02-13T19:24:28.400Z,5.97
2023-02-13T19:26:56.985Z,7.38
2023-02-13T19:29:25.570Z,7.22
2023-02-13T19:31:52.164Z,6.43
2023-02-13T19:34:18.699Z,5.70
2023-02-13T19:36:45.419Z,6.53
2023-02-13T19:39:15.021Z,6.75
2023-02-13T19:41:41.847Z,8.95
2023-02-13T19:44:08.910Z,7.72
2023-02-13T19:46:37.403Z,6.20
2023-02-13T19:49:05.083Z,5.60
2023-02-13T19:51:37.128Z,8.30
2023-02-13T19:54:08.697Z,5.82
2023-02-13T19:56:37.920Z,4.00
2023-02-13T19:59:07.085Z,6.95
2023-02-13T20:01:34.579Z,7.63
2023-02-13T20:04:01.229Z,7.50
2023-02-13T20:06:32.939Z,6.82
2023-02-13T20:09:06.406Z,5.70
2023-02-13T20:11:32.985Z,6.05
2023-02-13T20:14:04.229Z,6.95
2023-02-13T20:16:33.188Z,6.57
2023-02-13T20:19:08.939Z,5.30
2023-02-13T20:21:36.405Z,6.53
2023-02-13T20:24:03.464Z,6.55
2023-02-13T20:26:30.430Z,5.38
2023-02-13T20:28:59.460Z,6.50
2023-02-13T20:31:29.682Z,6.88
2023-02-13T20:33:57.301Z,5.35
2023-02-13T20:36:26.107Z,6.43
2023-02-13T20:38:55.776Z,7.10
2023-02-13T20:41:24.811Z,5.55
2023-02-13T20:43:51.982Z,6.82
2023-02-13T20:46:19.125Z,6.38
2023-02-13T20:48:47.187Z,6.50
2023-02-13T20:51:15.303Z,5.30
2023-02-13T20:53:43.285Z,6.72
2023-02-13T20:56:19.058Z,7.60
2023-02-13T20:58:48.182Z,6.53
2023-02-13T21:01:18.816Z,7.35
2023-02-13T21:03:47.980Z,6.47
2023-02-13T21:06:14.609Z,7.53
2023-02-13T21:08:43.698Z,7.47
2023-02-13T21:11:10.303Z,6.57
2023-02-13T21:13:36.831Z,7.50
2023-02-13T21:16:05.935Z,6.00
2023-02-13T21:18:32.583Z,6.32
2023-02-13T21:20:59.588Z,7.03
2023-02-13T21:23:26.574Z,5.03
2023-02-13T21:25:53.374Z,5.22
2023-02-13T21:28:20.059Z,6.93
2023-02-13T21:30:46.721Z,8.85
2023-02-13T21:33:13.461Z,7.47
2023-02-13T21:35:40.068Z,6.25
2023-02-13T21:38:06.572Z,5.60
2023-02-13T21:40:33.128Z,6.63
2023-02-13T21:42:59.639Z,5.38
2023-02-13T21:45:26.203Z,6.43
2023-02-13T21:47:55.783Z,6.13
2023-02-13T21:50:22.870Z,4.95
2023-02-13T21:52:49.393Z,6.18
2023-02-13T21:55:15.979Z,6.95
2023-02-13T21:57:42.498Z,7.97
2023-02-13T22:00:10.552Z,6.90
2023-02-13T22:02:40.522Z,5.45
2023-02-13T22:05:07.352Z,6.50
2023-02-13T22:07:53.999Z,4.80
2023-02-13T22:10:20.567Z,8.48
2023-02-13T22:12:51.096Z,7.10
2023-02-13T22:15:17.714Z,4.70
2023-02-13T22:17:44.265Z,4.32
2023-02-13T22:20:11.690Z,5.32
2023-02-13T22:22:38.251Z,5.80
2023-02-13T22:25:04.886Z,5.32
2023-02-13T22:27:31.757Z,5.25
2023-02-13T22:29:58.705Z,5.25
2023-02-13T22:32:25.322Z,3.78
2023-02-13T22:34:51.898Z,4.97
2023-02-13T22:37:18.463Z,5.78
2023-02-13T22:39:44.984Z,6.63
2023-02-13T22:42:11.561Z,5.00
2023-02-13T22:44:38.114Z,4.28
2023-02-13T22:47:07.207Z,4.57
2023-02-13T22:49:33.876Z,4.78
2023-02-13T22:52:00.598Z,4.25
2023-02-13T22:54:27.155Z,4.63
2023-02-13T22:56:53.656Z,3.70
2023-02-13T22:59:20.318Z,4.15
2023-02-13T23:01:46.834Z,5.80
2023-02-13T23:04:14.539Z,4.88
2023-02-13T23:06:41.507Z,4.60
2023-02-13T23:09:08.687Z,3.33
2023-02-13T23:11:53.635Z,6.38
2023-02-13T23:14:24.036Z,5.40
2023-02-13T23:17:09.886Z,4.28
2023-02-13T23:19:37.311Z,4.72
2023-02-13T23:22:04.248Z,5.40
2023-02-13T23:24:31.307Z,3.55
2023-02-13T23:26:59.143Z,2.97
2023-02-13T23:29:26.374Z,3.78
2023-02-13T23:31:53.455Z,4.28
2023-02-13T23:34:20.220Z,3.10
2023-02-13T23:36:46.923Z,4.45
2023-02-13T23:39:13.917Z,4.47
2023-02-13T23:41:40.458Z,4.28
2023-02-13T23:44:07.000Z,4.03
2023-02-13T23:46:33.667Z,4.47
2023-02-13T23:49:00.222Z,4.28
2023-02-13T23:51:26.737Z,3.70
2023-02-13T23:53:56.215Z,3.90
2023-02-13T23:56:24.234Z,4.38
2023-02-13T23:58:50.948Z,5.40
